createdAt,value
2022-08-25T00:00:19.717Z,98116.16
2022-08-25T00:02:55.699Z,98115.97
2022-08-25T00:05:29.366Z,98118.09
2022-08-25T00:08:00.429Z,98119.22
2022-08-25T00:10:28.599Z,98120.34
2022-08-25T00:12:56.542Z,98112.59
2022-08-25T00:15:24.871Z,98113.56
2022-08-25T00:17:53.737Z,98105.19
2022-08-25T00:20:22.451Z,98115.66
2022-08-25T00:22:51.829Z,98107.44
2022-08-25T00:25:20.749Z,98104.69
2022-08-25T00:27:48.731Z,98104.69
2022-08-25T00:30:17.453Z,98098.91
2022-08-25T00:32:48.913Z,98103.25
2022-08-25T00:35:23.637Z,98096.47
2022-08-25T00:37:52.872Z,98096.78
2022-08-25T00:40:21.232Z,98102.59
2022-08-25T00:42:49.507Z,98104.19
2022-08-25T00:45:18.873Z,98098.72
2022-08-25T00:47:46.837Z,98101.63
2022-08-25T00:50:15.236Z,98104.03
2022-08-25T00:52:45.748Z,98097.75
2022-08-25T00:55:17.429Z,98096.31
2022-08-25T00:57:48.698Z,98097.13
2022-08-25T01:00:21.814Z,98099.38
2022-08-25T01:02:50.744Z,98096.63
2022-08-25T01:05:19.656Z,98098.88
2022-08-25T01:07:50.498Z,98098.41
2022-08-25T01:10:23.399Z,98094.53
2022-08-25T01:12:51.814Z,98093.72
2022-08-25T01:15:21.760Z,98084.38
2022-08-25T01:17:51.605Z,98089.06
2022-08-25T01:20:21.493Z,98080.53
2022-08-25T01:22:55.232Z,98087.63
2022-08-25T01:25:32.337Z,98085.84
2022-08-25T01:28:03.280Z,98083.75
2022-08-25T01:30:31.790Z,98078.28
2022-08-25T01:32:59.782Z,98086.00
2022-08-25T01:35:27.762Z,98082.78
2022-08-25T01:37:57.622Z,98081.66
2022-08-25T01:40:25.583Z,98084.72
2022-08-25T01:43:00.325Z,98089.06
2022-08-25T01:45:28.928Z,98084.72
2022-08-25T01:47:56.894Z,98086.00
2022-08-25T01:50:24.852Z,98090.84
2022-08-25T01:52:57.453Z,98081.81
2022-08-25T01:55:25.893Z,98080.19
2022-08-25T01:57:53.935Z,98084.56
2022-08-25T02:00:22.636Z,98078.09
2022-08-25T02:02:54.193Z,98077.63
2022-08-25T02:05:24.008Z,98075.69
2022-08-25T02:07:52.239Z,98071.81
2022-08-25T02:10:22.495Z,98080.84
2022-08-25T02:12:51.836Z,98084.06
2022-08-25T02:15:22.621Z,98089.38
2022-08-25T02:17:50.520Z,98085.63
2022-08-25T02:20:19.167Z,98084.09
2022-08-25T02:22:56.578Z,98086.19
2022-08-25T02:25:26.999Z,98087.44
2022-08-25T02:27:54.956Z,98088.88
2022-08-25T02:30:23.238Z,98083.59
2022-08-25T02:32:51.156Z,98081.13
2022-08-25T02:35:19.284Z,98078.53
2022-08-25T02:37:47.235Z,98081.09
2022-08-25T02:40:15.292Z,98082.56
2022-08-25T02:42:44.852Z,98084.63
2022-08-25T02:45:12.802Z,98083.53
2022-08-25T02:47:41.169Z,98080.78
2022-08-25T02:50:11.185Z,98077.56
2022-08-25T02:52:41.041Z,98073.88
2022-08-25T02:55:14.127Z,98069.19
2022-08-25T02:57:43.016Z,98073.81
2022-08-25T03:00:14.147Z,98067.72
2022-08-25T03:02:42.516Z,98063.69
2022-08-25T03:05:11.750Z,98067.53
2022-08-25T03:07:40.004Z,98065.13
2022-08-25T03:10:09.511Z,98067.84
2022-08-25T03:12:37.446Z,98069.78
2022-08-25T03:15:09.236Z,98061.72
2022-08-25T03:17:45.650Z,98070.88
2022-08-25T03:20:14.116Z,98066.16
2022-08-25T03:22:42.744Z,98060.00
2022-08-25T03:25:28.535Z,98063.97
2022-08-25T03:27:56.459Z,98058.00
2022-08-25T03:30:24.488Z,98065.09
2022-08-25T03:32:53.864Z,98062.88
2022-08-25T03:35:21.800Z,98067.31
2022-08-25T03:37:51.199Z,98069.56
2022-08-25T03:40:19.514Z,98069.88
2022-08-25T03:42:47.923Z,98076.41
2022-08-25T03:45:16.900Z,98075.91
2022-08-25T03:47:48.050Z,98078.13
2022-08-25T03:50:19.507Z,98083.22
2022-08-25T03:52:52.571Z,98083.69
2022-08-25T03:55:20.907Z,98092.75
2022-08-25T03:57:48.916Z,98093.00
2022-08-25T04:00:18.497Z,98092.28
2022-08-25T04:02:47.024Z,98087.75
2022-08-25T04:05:15.919Z,98082.19
2022-08-25T04:07:45.396Z,98078.75
2022-08-25T04:10:13.904Z,98079.88
2022-08-25T04:12:41.883Z,98070.25
2022-08-25T04:15:10.645Z,98072.66
2022-08-25T04:17:40.086Z,98076.41
2022-08-25T04:20:09.614Z,98075.91
2022-08-25T04:22:38.697Z,98067.91
2022-08-25T04:25:09.061Z,98061.63
2022-08-25T04:27:38.048Z,98065.91
2022-08-25T04:30:07.247Z,98065.09
2022-08-25T04:32:36.888Z,98065.22
2022-08-25T04:35:05.245Z,98071.09
2022-08-25T04:37:33.717Z,98075.25
2022-08-25T04:40:01.742Z,98091.13
2022-08-25T04:42:31.941Z,98080.50
2022-08-25T04:45:01.835Z,98073.22
2022-08-25T04:47:31.174Z,98072.94
2022-08-25T04:49:59.393Z,98066.59
2022-08-25T04:52:27.297Z,98066.09
2022-08-25T04:54:55.661Z,98078.03
2022-08-25T04:57:23.711Z,98081.72
2022-08-25T04:59:54.244Z,98089.13
2022-08-25T05:02:22.184Z,98083.69
2022-08-25T05:04:50.069Z,98090.06
2022-08-25T05:07:17.977Z,98086.50
2022-08-25T05:09:45.917Z,98088.44
2022-08-25T05:12:13.999Z,98089.75
2022-08-25T05:14:41.932Z,98082.22
2022-08-25T05:17:11.250Z,98086.47
2022-08-25T05:19:39.370Z,98090.72
2022-08-25T05:22:07.455Z,98088.47
2022-08-25T05:24:35.385Z,98080.28
2022-08-25T05:27:04.040Z,98087.88
2022-08-25T05:29:31.945Z,98074.44
2022-08-25T05:32:00.403Z,98069.78
2022-08-25T05:34:30.248Z,98071.09
2022-08-25T05:37:00.186Z,98070.09
2022-08-25T05:39:32.521Z,98069.38
2022-08-25T05:42:01.065Z,98071.91
2022-08-25T05:44:28.977Z,98069.06
2022-08-25T05:46:56.788Z,98074.44
2022-08-25T05:49:24.824Z,98077.25
2022-08-25T05:51:54.312Z,98077.13
2022-08-25T05:54:22.372Z,98071.88
2022-08-25T05:56:50.177Z,98071.75
2022-08-25T05:59:18.384Z,98072.38
2022-08-25T06:02:03.677Z,98059.63
2022-08-25T06:04:32.496Z,98052.84
2022-08-25T06:07:01.828Z,98050.13
2022-08-25T06:09:29.669Z,98044.03
2022-08-25T06:11:57.789Z,98041.81
2022-08-25T06:14:25.768Z,98043.13
2022-08-25T06:16:53.905Z,98040.88
2022-08-25T06:19:23.388Z,98048.28
2022-08-25T06:21:55.102Z,98039.66
2022-08-25T06:24:25.248Z,98026.38
2022-08-25T06:26:53.329Z,98025.00
2022-08-25T06:29:21.294Z,98033.22
2022-08-25T06:31:50.126Z,98040.84
2022-08-25T06:34:18.482Z,98040.91
2022-08-25T06:36:48.982Z,98047.28
2022-08-25T06:39:17.830Z,98038.94
2022-08-25T06:41:47.221Z,98044.13
2022-08-25T06:44:16.447Z,98044.00
2022-08-25T06:46:44.672Z,98050.47
2022-08-25T06:49:12.725Z,98044.03
2022-08-25T06:51:41.951Z,98055.84
2022-08-25T06:54:11.232Z,98048.59
2022-08-25T06:56:41.365Z,98044.63
2022-08-25T06:59:11.666Z,98040.66
2022-08-25T07:01:39.756Z,98042.16
2022-08-25T07:04:12.755Z,98043.63
2022-08-25T07:06:43.128Z,98051.03
2022-08-25T07:09:11.960Z,98047.81
2022-08-25T07:11:39.910Z,98052.00
2022-08-25T07:14:12.023Z,98047.00
2022-08-25T07:16:41.768Z,98050.41
2022-08-25T07:19:14.735Z,98044.75
2022-08-25T07:21:45.514Z,98043.72
2022-08-25T07:24:15.045Z,98036.09
2022-08-25T07:26:43.948Z,98039.25
2022-08-25T07:29:15.836Z,98046.50
2022-08-25T07:31:44.395Z,98041.69
2022-08-25T07:34:29.781Z,98037.06
2022-08-25T07:36:58.332Z,98024.22
2022-08-25T07:39:29.102Z,98037.38
2022-08-25T07:41:57.544Z,98029.97
2022-08-25T07:44:28.470Z,98033.69
2022-08-25T07:46:56.643Z,98022.78
2022-08-25T07:49:26.513Z,98028.50
2022-08-25T07:52:06.614Z,98012.69
2022-08-25T07:54:38.043Z,98023.03
2022-08-25T07:57:08.310Z,98022.25
2022-08-25T07:59:41.515Z,98023.94
2022-08-25T08:02:16.087Z,98012.75
2022-08-25T08:04:49.287Z,98023.91
2022-08-25T08:07:19.543Z,98008.91
2022-08-25T08:09:55.866Z,98019.91
2022-08-25T08:12:24.982Z,98023.50
2022-08-25T08:14:54.732Z,98022.72
2022-08-25T08:17:23.254Z,98030.25
2022-08-25T08:19:52.788Z,98029.03
2022-08-25T08:22:21.176Z,98021.66
2022-08-25T08:24:54.553Z,98018.00
2022-08-25T08:27:24.846Z,98021.38
2022-08-25T08:29:54.730Z,98022.34
2022-08-25T08:32:23.810Z,98011.47
2022-08-25T08:35:01.137Z,98016.38
2022-08-25T08:37:29.002Z,98015.03
2022-08-25T08:40:01.545Z,98008.00
2022-08-25T08:42:50.243Z,98008.69
2022-08-25T08:45:40.391Z,98005.19
2022-08-25T08:48:44.069Z,98013.31
2022-08-25T08:51:19.518Z,98010.69
2022-08-25T08:53:57.109Z,98000.88
2022-08-25T08:56:30.660Z,97995.03
2022-08-25T08:59:05.633Z,97987.00
2022-08-25T09:01:38.247Z,97986.78
2022-08-25T09:04:10.895Z,97994.19
2022-08-25T09:06:43.870Z,97989.97
2022-08-25T09:09:14.766Z,97988.16
2022-08-25T09:11:52.586Z,97985.53
2022-08-25T09:14:33.020Z,97982.63
2022-08-25T09:17:07.286Z,97981.09
2022-08-25T09:20:18.997Z,97985.25
2022-08-25T09:22:56.482Z,97984.72
2022-08-25T09:28:23.389Z,97973.06
2022-08-25T09:30:55.146Z,97965.91
2022-08-25T09:33:26.851Z,97963.59
2022-08-25T09:35:57.465Z,97962.97
2022-08-25T09:38:29.592Z,97974.56
2022-08-25T09:41:01.021Z,97963.22
2022-08-25T09:43:35.143Z,97960.16
2022-08-25T09:46:04.972Z,97952.53
2022-08-25T09:48:40.688Z,97951.91
2022-08-25T09:51:17.806Z,97956.19
2022-08-25T09:53:52.311Z,97958.22
2022-08-25T09:56:22.766Z,97943.28
2022-08-25T09:58:51.528Z,97946.63
2022-08-25T10:01:22.524Z,97942.53
2022-08-25T10:04:01.365Z,97935.91
2022-08-25T10:06:37.659Z,97936.75
2022-08-25T10:09:07.559Z,97932.50
2022-08-25T10:11:42.277Z,97941.31
2022-08-25T10:14:28.784Z,97940.13
2022-08-25T10:17:16.421Z,97939.78
2022-08-25T10:19:46.003Z,97930.72
2022-08-25T10:22:24.902Z,97925.72
2022-08-25T10:24:53.130Z,97923.81
2022-08-25T10:27:28.805Z,97927.50
2022-08-25T10:30:12.949Z,97922.78
2022-08-25T10:32:58.645Z,97909.69
2022-08-25T10:35:32.605Z,97910.53
2022-08-25T10:38:10.379Z,97899.09
2022-08-25T10:40:47.591Z,97903.06
2022-08-25T10:43:26.880Z,97903.91
2022-08-25T10:46:01.722Z,97898.75
2022-08-25T10:48:54.117Z,97899.53
2022-08-25T10:51:42.980Z,97891.28
2022-08-25T10:54:21.604Z,97895.72
2022-08-25T10:57:01.449Z,97889.38
2022-08-25T10:59:52.719Z,97882.84
2022-08-25T11:03:01.882Z,97883.50
2022-08-25T11:05:33.398Z,97882.53
2022-08-25T11:08:08.284Z,97877.53
2022-08-25T11:10:42.546Z,97880.97
2022-08-25T11:13:15.689Z,97879.13
2022-08-25T11:16:13.279Z,97888.34
2022-08-25T11:18:40.575Z,97868.13
2022-08-25T11:21:11.862Z,97881.09
2022-08-25T11:23:42.984Z,97877.06
2022-08-25T11:26:13.161Z,97878.22
2022-08-25T11:28:50.780Z,97870.34
2022-08-25T11:31:20.453Z,97860.03
2022-08-25T11:33:50.478Z,97861.31
2022-08-25T11:36:29.662Z,97853.00
2022-08-25T11:39:11.746Z,97847.00
2022-08-25T11:41:46.978Z,97846.28
2022-08-25T11:44:39.764Z,97844.78
2022-08-25T11:47:34.527Z,97842.44
2022-08-25T11:50:06.999Z,97840.84
2022-08-25T11:52:49.223Z,97842.09
2022-08-25T11:55:26.807Z,97832.13
2022-08-25T11:58:16.950Z,97854.03
2022-08-25T12:00:45.302Z,97840.44
2022-08-25T12:03:46.748Z,97835.25
2022-08-25T12:06:22.882Z,97831.63
2022-08-25T12:09:06.265Z,97840.03
2022-08-25T12:11:54.714Z,97837.63
2022-08-25T12:14:44.533Z,97841.97
2022-08-25T12:17:29.667Z,97839.94
2022-08-25T12:20:01.621Z,97835.59
2022-08-25T12:22:51.849Z,97830.88
2022-08-25T12:25:45.049Z,97825.28
2022-08-25T12:28:46.636Z,97819.38
2022-08-25T12:31:23.553Z,97824.53
2022-08-25T12:34:02.519Z,97819.78
2022-08-25T12:36:33.280Z,97816.97
2022-08-25T12:39:19.448Z,97827.75
2022-08-25T12:41:55.486Z,97810.63
2022-08-25T12:44:40.162Z,97806.22
2022-08-25T12:47:15.296Z,97812.94
2022-08-25T12:49:43.849Z,97820.84
2022-08-25T12:52:14.646Z,97816.81
2022-08-25T12:54:49.546Z,97810.00
2022-08-25T12:57:40.301Z,97815.50
2022-08-25T13:00:18.413Z,97815.09
2022-08-25T13:06:31.858Z,97808.56
2022-08-25T13:09:26.252Z,97812.94
2022-08-25T13:11:57.793Z,97808.94
2022-08-25T13:17:03.062Z,97796.09
2022-08-25T13:19:35.018Z,97801.25
2022-08-25T13:22:15.579Z,97799.94
2022-08-25T13:24:45.428Z,97778.81
2022-08-25T13:27:22.894Z,97787.91
2022-08-25T13:29:53.349Z,97782.22
2022-08-25T13:32:32.363Z,97782.38
2022-08-25T13:35:14.203Z,97782.19
2022-08-25T13:37:43.775Z,97779.25
2022-08-25T13:40:15.048Z,97775.66
2022-08-25T13:42:54.463Z,97765.56
2022-08-25T13:45:25.713Z,97764.28
2022-08-25T13:47:55.934Z,97772.06
2022-08-25T13:50:33.617Z,97764.44
2022-08-25T13:53:04.084Z,97760.41
2022-08-25T13:55:38.268Z,97773.72
2022-08-25T13:58:24.242Z,97763.72
2022-08-25T14:01:22.861Z,97756.59
2022-08-25T14:04:01.269Z,97755.47
2022-08-25T14:06:29.630Z,97759.75
2022-08-25T14:09:16.071Z,97759.16
2022-08-25T14:11:46.740Z,97751.97
2022-08-25T14:14:32.448Z,97752.78
2022-08-25T14:17:16.378Z,97753.50
2022-08-25T14:19:54.263Z,97758.28
2022-08-25T14:22:22.184Z,97747.88
2022-08-25T14:24:50.274Z,97759.78
2022-08-25T14:27:18.851Z,97741.50
2022-08-25T14:29:50.983Z,97741.56
2022-08-25T14:32:21.036Z,97738.66
2022-08-25T14:34:48.973Z,97740.22
2022-08-25T14:37:20.140Z,97735.44
2022-08-25T14:39:54.712Z,97745.00
2022-08-25T14:42:25.363Z,97740.63
2022-08-25T14:44:54.641Z,97737.09
2022-08-25T14:47:25.596Z,97737.88
2022-08-25T14:49:53.482Z,97729.94
2022-08-25T14:52:28.512Z,97737.16
2022-08-25T14:54:57.628Z,97732.06
2022-08-25T14:57:26.201Z,97735.34
2022-08-25T14:59:54.175Z,97735.38
2022-08-25T15:02:29.469Z,97730.22
2022-08-25T15:05:00.554Z,97731.44
2022-08-25T15:07:50.406Z,97729.81
2022-08-25T15:10:19.145Z,97722.22
2022-08-25T15:12:53.984Z,97721.00
2022-08-25T15:15:26.374Z,97727.69
2022-08-25T15:17:55.189Z,97726.09
2022-08-25T15:20:26.460Z,97718.50
2022-08-25T15:22:56.030Z,97718.88
2022-08-25T15:25:24.627Z,97710.13
2022-08-25T15:27:56.661Z,97716.03
2022-08-25T15:30:30.830Z,97709.69
2022-08-25T15:33:03.790Z,97707.38
2022-08-25T15:35:32.864Z,97704.66
2022-08-25T15:38:02.791Z,97700.34
2022-08-25T15:40:32.209Z,97698.38
2022-08-25T15:43:01.250Z,97701.16
2022-08-25T15:45:29.445Z,97698.41
2022-08-25T15:47:59.027Z,97697.59
2022-08-25T15:50:28.199Z,97685.69
2022-08-25T15:52:56.084Z,97680.13
2022-08-25T15:55:26.013Z,97687.69
2022-08-25T15:57:55.367Z,97681.31
2022-08-25T16:00:24.297Z,97690.88
2022-08-25T16:02:52.607Z,97678.94
2022-08-25T16:05:25.670Z,97683.72
2022-08-25T16:07:54.049Z,97680.13
2022-08-25T16:10:22.172Z,97683.31
2022-08-25T16:12:52.851Z,97686.91
2022-08-25T16:15:24.063Z,97675.72
2022-08-25T16:17:56.915Z,97679.72
2022-08-25T16:20:25.294Z,97670.94
2022-08-25T16:22:56.029Z,97687.63
2022-08-25T16:25:24.158Z,97684.06
2022-08-25T16:27:53.641Z,97675.72
2022-08-25T16:30:22.656Z,97682.81
2022-08-25T16:32:50.592Z,97684.00
2022-08-25T16:35:18.993Z,97674.06
2022-08-25T16:37:46.994Z,97670.06
2022-08-25T16:40:19.050Z,97677.22
2022-08-25T16:42:48.521Z,97677.16
2022-08-25T16:45:18.309Z,97669.56
2022-08-25T16:47:46.602Z,97667.59
2022-08-25T16:50:16.561Z,97678.69
2022-08-25T16:53:02.002Z,97676.28
2022-08-25T16:55:38.927Z,97673.13
2022-08-25T16:58:08.059Z,97680.22
2022-08-25T17:00:39.808Z,97674.63
2022-08-25T17:03:08.148Z,97671.44
2022-08-25T17:05:42.730Z,97665.03
2022-08-25T17:08:28.067Z,97667.00
2022-08-25T17:10:56.811Z,97673.31
2022-08-25T17:13:24.780Z,97664.16
2022-08-25T17:15:54.217Z,97661.34
2022-08-25T17:18:22.359Z,97670.44
2022-08-25T17:20:59.357Z,97671.97
2022-08-25T17:23:27.325Z,97667.16
2022-08-25T17:25:55.482Z,97666.34
2022-08-25T17:28:24.554Z,97670.66
2022-08-25T17:30:59.817Z,97673.84
2022-08-25T17:33:28.093Z,97662.28
2022-08-25T17:35:58.406Z,97666.63
2022-08-25T17:38:28.476Z,97676.88
2022-08-25T17:40:58.418Z,97670.47
2022-08-25T17:43:28.874Z,97676.75
2022-08-25T17:45:58.411Z,97679.06
2022-08-25T17:48:27.086Z,97667.47
2022-08-25T17:51:02.913Z,97679.28
2022-08-25T17:53:31.116Z,97674.06
2022-08-25T17:56:01.512Z,97684.69
2022-08-25T17:58:30.301Z,97673.91
2022-08-25T18:01:00.059Z,97678.63
2022-08-25T18:03:28.721Z,97682.47
2022-08-25T18:05:56.887Z,97685.09
2022-08-25T18:08:32.167Z,97684.97
2022-08-25T18:11:08.478Z,97686.84
2022-08-25T18:13:36.833Z,97687.53
2022-08-25T18:16:07.527Z,97686.19
2022-08-25T18:18:35.682Z,97690.00
2022-08-25T18:21:04.516Z,97699.31
2022-08-25T18:23:36.589Z,97698.44
2022-08-25T18:26:06.740Z,97688.03
2022-08-25T18:28:34.673Z,97696.66
2022-08-25T18:31:03.745Z,97699.31
2022-08-25T18:33:34.155Z,97695.22
2022-08-25T18:36:03.914Z,97701.75
2022-08-25T18:38:49.372Z,97701.16
2022-08-25T18:41:17.230Z,97699.06
2022-08-25T18:43:46.181Z,97703.28
2022-08-25T18:46:14.369Z,97708.34
2022-08-25T18:48:45.643Z,97699.47
2022-08-25T18:51:16.516Z,97709.66
2022-08-25T18:53:51.408Z,97703.22
2022-08-25T18:56:25.722Z,97707.44
2022-08-25T18:58:53.956Z,97700.59
2022-08-25T19:01:24.677Z,97704.91
2022-08-25T19:03:54.319Z,97707.94
2022-08-25T19:06:22.661Z,97712.22
2022-08-25T19:08:50.980Z,97703.88
2022-08-25T19:11:22.066Z,97708.16
2022-08-25T19:13:50.728Z,97705.97
2022-08-25T19:16:21.356Z,97705.88
2022-08-25T19:18:52.243Z,97705.72
2022-08-25T19:21:23.847Z,97709.22
2022-08-25T19:23:52.347Z,97699.63
2022-08-25T19:26:21.487Z,97707.81
2022-08-25T19:28:50.731Z,97709.47
2022-08-25T19:31:19.290Z,97707.16
2022-08-25T19:33:47.364Z,97708.88
2022-08-25T19:36:16.266Z,97709.03
2022-08-25T19:38:46.169Z,97707.72
2022-08-25T19:41:17.483Z,97707.53
2022-08-25T19:43:55.198Z,97708.16
2022-08-25T19:46:32.158Z,97711.19
2022-08-25T19:49:07.676Z,97711.03
2022-08-25T19:51:38.066Z,97719.63
2022-08-25T19:54:09.121Z,97713.19
2022-08-25T19:56:43.705Z,97716.94
2022-08-25T19:59:25.476Z,97713.19
2022-08-25T20:01:54.523Z,97716.56
2022-08-25T20:04:24.560Z,97718.88
2022-08-25T20:06:53.262Z,97716.38
2022-08-25T20:09:38.878Z,97717.88
2022-08-25T20:12:09.353Z,97721.19
2022-08-25T20:14:37.653Z,97722.72
2022-08-25T20:17:14.508Z,97726.63
2022-08-25T20:19:53.430Z,97726.06
2022-08-25T20:22:25.867Z,97727.66
2022-08-25T20:24:57.572Z,97732.38
2022-08-25T20:27:28.273Z,97726.09
2022-08-25T20:29:56.711Z,97730.16
2022-08-25T20:32:24.753Z,97731.56
2022-08-25T20:34:55.775Z,97734.47
2022-08-25T20:37:23.891Z,97736.75
2022-08-25T20:39:52.946Z,97727.34
2022-08-25T20:42:22.382Z,97741.72
2022-08-25T20:44:50.420Z,97739.88
2022-08-25T20:47:21.065Z,97736.78
2022-08-25T20:49:50.490Z,97733.81
2022-08-25T20:52:19.989Z,97730.94
2022-08-25T20:54:49.438Z,97726.94
2022-08-25T20:57:25.684Z,97730.38
2022-08-25T20:59:56.153Z,97729.34
2022-08-25T21:02:24.569Z,97736.69
2022-08-25T21:04:52.900Z,97735.66
2022-08-25T21:07:21.489Z,97746.06
2022-08-25T21:09:51.977Z,97728.88
2022-08-25T21:12:20.018Z,97734.72
2022-08-25T21:14:48.622Z,97737.25
2022-08-25T21:17:19.909Z,97735.06
2022-08-25T21:22:16.914Z,97742.56
2022-08-25T21:24:45.679Z,97743.47
2022-08-25T21:27:13.637Z,97738.66
2022-08-25T21:29:44.804Z,97738.66
2022-08-25T21:32:24.426Z,97748.97
2022-08-25T21:34:53.835Z,97755.03
2022-08-25T21:37:21.716Z,97747.13
2022-08-25T21:39:50.000Z,97751.00
2022-08-25T21:42:17.955Z,97748.16
2022-08-25T21:44:45.856Z,97752.69
2022-08-25T21:47:13.940Z,97750.72
2022-08-25T21:49:44.352Z,97752.88
2022-08-25T21:52:12.197Z,97747.47
2022-08-25T21:54:40.045Z,97752.28
2022-08-25T21:57:08.051Z,97747.81
2022-08-25T21:59:40.325Z,97744.28
2022-08-25T22:02:13.130Z,97744.28
2022-08-25T22:04:42.133Z,97744.94
2022-08-25T22:07:12.332Z,97750.31
2022-08-25T22:09:41.180Z,97744.81
2022-08-25T22:12:09.819Z,97746.88
2022-08-25T22:14:38.756Z,97753.53
2022-08-25T22:17:10.021Z,97748.03
2022-08-25T22:19:41.717Z,97742.78
2022-08-25T22:22:09.990Z,97741.97
2022-08-25T22:24:39.480Z,97738.69
2022-08-25T22:27:15.418Z,97736.41
2022-08-25T22:29:44.437Z,97731.81
2022-08-25T22:32:13.709Z,97733.88
2022-08-25T22:34:43.646Z,97732.75
2022-08-25T22:37:12.384Z,97733.56
2022-08-25T22:39:46.570Z,97738.25
2022-08-25T22:42:15.069Z,97733.09
2022-08-25T22:44:43.898Z,97740.19
2022-08-25T22:47:12.499Z,97733.22
2022-08-25T22:49:40.691Z,97732.28
2022-08-25T22:52:11.605Z,97737.78
2022-08-25T22:54:42.183Z,97727.94
2022-08-25T22:57:11.874Z,97725.88
2022-08-25T22:59:39.948Z,97731.69
2022-08-25T23:02:08.457Z,97731.59
2022-08-25T23:04:36.860Z,97730.91
2022-08-25T23:07:09.609Z,97731.13
2022-08-25T23:09:38.193Z,97736.25
2022-08-25T23:12:06.967Z,97739.41
2022-08-25T23:14:36.743Z,97722.38
2022-08-25T23:17:07.448Z,97729.81
2022-08-25T23:19:35.976Z,97727.75
2022-08-25T23:22:13.495Z,97721.91
2022-08-25T23:24:46.604Z,97724.66
2022-08-25T23:27:16.316Z,97728.22
2022-08-25T23:29:48.252Z,97720.88
2022-08-25T23:32:17.317Z,97720.78
2022-08-25T23:34:47.142Z,97712.16
2022-08-25T23:37:18.526Z,97713.34
2022-08-25T23:39:49.536Z,97712.75
2022-08-25T23:42:19.246Z,97716.44
2022-08-25T23:44:48.936Z,97706.25
2022-08-25T23:47:16.872Z,97706.91
2022-08-25T23:49:45.306Z,97704.19
2022-08-25T23:52:17.165Z,97703.03
2022-08-25T23:54:45.652Z,97705.78
2022-08-25T23:57:13.465Z,97703.50
2022-08-25T23:59:43.282Z,97700.75
